ダルエスサラーム の空港の天気 - METARとTAF

ジュリウス・ニエレレ国際空港(ダルエスサラーム) ( HTDA / DAR ) - タンザニア ダルエスサラーム
飛行場実況気象(Metar)
観測時間11/27 10:00 EAT (11/27 07:00 UTC)
風向・風速北西 3m/s
視程10km以上
天気現象周辺でしゅう雨
少しの雲 雲底高度 370m
全天の8割程度の雲 雲底高度 430m
気温27℃
湿度84%
気圧1013hPa
METARHTDA 270700Z 32005KT 9999 VCSH FEW012 BKN014 27/24 Q1013 NOSIG
過去の天気等 Google飛行場航空写真 Wunderground天気予報

過去48時間のMETAR

飛行場予報(TAF)
発表時間: 11/27 08:00 EAT (11/27 05:00 UTC)
予報対象時間: 27日9時 EAT ~ 28日15時 EAT
風向・風速西 3m/s
視程5000m
天気現象
全天の8割程度の雲 雲底高度 300m
少しの積乱雲 雲底高度 430m
27日13時 EAT ~ 27日16時 EAT に徐々に
風向・風速東 5m/s
全天の8割程度の雲 雲底高度 610m
TAF HTDA 270500Z 2706/2812 28005KT 5000 RA BKN010 FEW014CB
BECMG 2710/2713 08010KT BKN020